Orin, Wyoming
Current Conditions -  °F | °C
As of 8:53 PM on Tuesday 21 Oct 2014 (Local Time) from KDGW Reporting Station
Light Rain Light Rain  
Wind Chill: 57°   Ceiling: 8000
Heat Index: 57°   Visibility: 10mi
Dew Point: 43°   Wind: 24mph
Humidity: 59%   Direction: 260°W
Pressure: 29.94"   Gusts: 33mph
Location:  43.1775°N, 105.367°W
Report Text: KDGW 220253Z AUTO 26021G29KT 10SM -RA FEW044 BKN080 OVC120 14/06 A2994 RMK AO2 PK WND 28035/0202 RAB43 SLP106 P0000 60000 T01390061 53020
Loading
Personal Weather Stations






























Interactive Weather Map
Tropical Storm Tracking
New forecast layout! Learn more

10-Day Weather Forecast

Advertisements
Track Severe Weather on mobile